Mount Hotham, Australia
Current Conditions -  °F | °C
As of 6:00 PM on Sunday 21 Dec 2014 (Local Time) from YMAY Reporting Station
Scattered Clouds Scattered Clouds  
Wind Chill: 90°   Ceiling: Unl
Heat Index: 90°   Visibility: 6mi
Dew Point: 46°   Wind: 9mph
Humidity: 22%   Direction: 150°SSE
Pressure: 29.85"   Gusts: NA
Location:  37.05°S, 147.33°E
Report Text: YMAY 210700Z AUTO 15008KT 9999 // SCT110 32/08 Q1011
Loading
Personal Weather Stations






























Interactive Weather Map New forecast layout! Learn more

10-Day Weather Forecast

Advertisements
Track Severe Weather on mobile